createdAt,value
2022-08-03T00:00:27.944Z,101533.09
2022-08-03T00:03:29.553Z,101532.16
2022-08-03T00:06:36.477Z,101526.28
2022-08-03T00:09:38.503Z,101520.00
2022-08-03T00:12:39.935Z,101525.81
2022-08-03T00:15:42.783Z,101520.94
2022-08-03T00:18:44.490Z,101521.72
2022-08-03T00:21:45.934Z,101524.63
2022-08-03T00:24:47.387Z,101525.13
2022-08-03T00:27:48.853Z,101522.81
2022-08-03T00:30:52.676Z,101519.53
2022-08-03T00:33:58.921Z,101511.75
2022-08-03T00:37:01.439Z,101514.63
2022-08-03T00:40:03.650Z,101516.56
2022-08-03T00:43:08.258Z,101512.59
2022-08-03T00:46:09.706Z,101505.59
2022-08-03T00:49:11.218Z,101506.94
2022-08-03T00:52:15.227Z,101511.75
2022-08-03T00:55:16.751Z,101505.69
2022-08-03T00:58:18.260Z,101505.22
2022-08-03T01:01:19.754Z,101507.13
2022-08-03T01:04:21.322Z,101503.66
2022-08-03T01:08:03.221Z,101500.66
2022-08-03T01:11:20.209Z,101503.47
2022-08-03T01:14:32.376Z,101490.41
2022-08-03T01:17:51.350Z,101494.06
2022-08-03T01:20:58.114Z,101488.53
2022-08-03T01:24:13.302Z,101479.91
2022-08-03T01:27:18.757Z,101491.38
2022-08-03T01:30:20.937Z,101494.50
2022-08-03T01:33:25.213Z,101499.44
2022-08-03T01:36:34.016Z,101494.81
2022-08-03T01:39:37.788Z,101489.75
2022-08-03T01:42:41.112Z,101500.53
2022-08-03T01:45:43.686Z,101489.09
2022-08-03T01:48:47.494Z,101489.31
2022-08-03T01:52:03.409Z,101490.47
2022-08-03T01:55:08.235Z,101492.19
2022-08-03T01:58:10.899Z,101494.09
2022-08-03T02:01:16.026Z,101490.63
2022-08-03T02:04:18.373Z,101490.91
2022-08-03T02:07:20.817Z,101491.22
2022-08-03T02:10:34.449Z,101491.84
2022-08-03T02:13:38.486Z,101483.84
2022-08-03T02:16:39.959Z,101484.94
2022-08-03T02:19:43.280Z,101482.41
2022-08-03T02:22:46.472Z,101474.63
2022-08-03T02:25:53.939Z,101472.75
2022-08-03T02:28:57.936Z,101477.06
2022-08-03T02:32:03.021Z,101469.91
2022-08-03T02:35:09.460Z,101467.41
2022-08-03T02:38:15.092Z,101461.19
2022-08-03T02:41:20.949Z,101464.66
2022-08-03T02:44:26.228Z,101456.88
2022-08-03T02:47:53.601Z,101461.34
2022-08-03T02:50:53.496Z,101465.91
2022-08-03T02:53:56.320Z,101463.25
2022-08-03T02:56:58.751Z,101458.19
2022-08-03T03:00:01.805Z,101455.88
2022-08-03T03:03:05.282Z,101460.13
2022-08-03T03:06:09.013Z,101452.97
2022-08-03T03:09:11.014Z,101451.56
2022-08-03T03:12:13.789Z,101455.03
2022-08-03T03:15:15.636Z,101451.59
2022-08-03T03:18:21.857Z,101453.78
2022-08-03T03:21:26.666Z,101459.19
2022-08-03T03:24:29.339Z,101460.75
2022-08-03T03:27:31.433Z,101452.72
2022-08-03T03:30:34.488Z,101452.03
2022-08-03T03:33:37.298Z,101457.91
2022-08-03T03:36:38.811Z,101459.41
2022-08-03T03:39:40.341Z,101459.59
2022-08-03T03:42:42.168Z,101457.38
2022-08-03T03:45:44.129Z,101458.16
2022-08-03T03:48:45.617Z,101453.13
2022-08-03T03:51:47.102Z,101462.06
2022-08-03T03:54:48.553Z,101462.84
2022-08-03T03:57:50.520Z,101458.72
2022-08-03T04:00:52.105Z,101465.72
2022-08-03T04:03:53.598Z,101467.53
2022-08-03T04:06:55.072Z,101471.25
2022-08-03T04:09:57.566Z,101468.66
2022-08-03T04:13:02.148Z,101466.50
2022-08-03T04:16:04.977Z,101468.34
2022-08-03T04:19:10.324Z,101467.53
2022-08-03T04:22:16.686Z,101466.25
2022-08-03T04:25:22.896Z,101470.44
2022-08-03T04:28:30.652Z,101459.59
2022-08-03T04:31:35.123Z,101462.00
2022-08-03T04:34:36.662Z,101474.91
2022-08-03T04:37:51.341Z,101473.16
2022-08-03T04:40:53.236Z,101473.34
2022-08-03T04:43:57.510Z,101475.22
2022-08-03T04:47:00.244Z,101476.94
2022-08-03T04:50:03.326Z,101478.69
2022-08-03T04:53:08.545Z,101473.38
2022-08-03T04:56:11.101Z,101476.78
2022-08-03T04:59:12.906Z,101481.97
2022-08-03T05:02:14.886Z,101488.03
2022-08-03T05:05:17.656Z,101488.91
2022-08-03T05:08:28.240Z,101490.78
2022-08-03T05:11:30.043Z,101489.94
2022-08-03T05:14:31.532Z,101495.19
2022-08-03T05:17:33.344Z,101499.59
2022-08-03T05:20:34.846Z,101505.38
2022-08-03T05:23:36.455Z,101507.72
2022-08-03T05:26:37.915Z,101507.22
2022-08-03T05:29:39.627Z,101502.31
2022-08-03T05:32:41.350Z,101511.41
2022-08-03T05:35:57.348Z,101504.66
2022-08-03T05:39:04.399Z,101511.69
2022-08-03T05:42:05.880Z,101501.97
2022-08-03T05:45:07.841Z,101496.94
2022-08-03T05:48:10.124Z,101501.41
2022-08-03T05:51:12.230Z,101501.63
2022-08-03T05:54:14.221Z,101505.06
2022-08-03T05:57:15.627Z,101504.63
2022-08-03T06:00:17.609Z,101503.34
2022-08-03T06:03:20.617Z,101503.97
2022-08-03T06:06:23.972Z,101502.25
2022-08-03T06:09:25.440Z,101501.84
2022-08-03T06:12:46.976Z,101500.13
2022-08-03T06:15:48.513Z,101498.28
2022-08-03T06:18:49.987Z,101499.41
2022-08-03T06:21:51.473Z,101501.06
2022-08-03T06:24:53.764Z,101497.63
2022-08-03T06:27:56.647Z,101496.66
2022-08-03T06:30:58.126Z,101497.03
2022-08-03T06:34:32.236Z,101495.91
2022-08-03T06:37:21.124Z,101499.97
2022-08-03T06:40:26.430Z,101502.69
2022-08-03T06:43:27.849Z,101515.88
2022-08-03T06:46:29.555Z,101513.00
2022-08-03T06:49:31.056Z,101515.47
2022-08-03T06:52:37.744Z,101516.78
2022-08-03T06:55:42.284Z,101512.03
2022-08-03T06:58:44.047Z,101515.47
2022-08-03T07:01:45.644Z,101520.06
2022-08-03T07:04:48.849Z,101522.66
2022-08-03T07:07:50.292Z,101519.84
2022-08-03T07:10:51.758Z,101525.63
2022-08-03T07:13:53.245Z,101521.59
2022-08-03T07:16:54.973Z,101522.19
2022-08-03T07:19:56.603Z,101523.56
2022-08-03T07:22:58.113Z,101539.06
2022-08-03T07:25:59.579Z,101532.03
2022-08-03T07:29:01.035Z,101541.06
2022-08-03T07:32:04.189Z,101543.53
2022-08-03T07:35:08.620Z,101549.88
2022-08-03T07:38:10.391Z,101556.03
2022-08-03T07:41:11.834Z,101553.91
2022-08-03T07:44:13.639Z,101548.16
2022-08-03T07:47:24.235Z,101548.50
2022-08-03T07:50:26.065Z,101552.50
2022-08-03T07:53:27.506Z,101552.44
2022-08-03T07:56:29.226Z,101557.69
2022-08-03T07:59:30.662Z,101547.44
2022-08-03T08:02:52.084Z,101559.59
2022-08-03T08:05:53.645Z,101561.97
2022-08-03T08:08:55.082Z,101557.63
2022-08-03T08:11:56.517Z,101569.84
2022-08-03T08:14:58.305Z,101566.03
2022-08-03T08:18:01.112Z,101573.78
2022-08-03T08:21:02.619Z,101569.81
2022-08-03T08:24:10.747Z,101568.03
2022-08-03T08:27:17.526Z,101549.50
2022-08-03T08:30:21.738Z,101564.22
2022-08-03T08:33:24.077Z,101564.56
2022-08-03T08:36:26.063Z,101564.00
2022-08-03T08:39:27.618Z,101561.00
2022-08-03T08:42:29.115Z,101570.31
2022-08-03T08:45:31.138Z,101568.44
2022-08-03T08:48:32.667Z,101559.41
2022-08-03T08:51:54.881Z,101562.44
2022-08-03T08:55:02.094Z,101558.47
2022-08-03T08:58:06.059Z,101552.84
2022-08-03T09:01:07.609Z,101560.59
2022-08-03T09:04:09.442Z,101559.22
2022-08-03T09:07:20.124Z,101567.44
2022-08-03T09:10:22.018Z,101572.03
2022-08-03T09:13:24.041Z,101570.16
2022-08-03T09:16:25.604Z,101571.19
2022-08-03T09:19:27.564Z,101576.06
2022-08-03T09:22:29.005Z,101580.44
2022-08-03T09:25:53.512Z,101580.09
2022-08-03T09:29:14.581Z,101588.44
2022-08-03T09:32:23.186Z,101585.56
2022-08-03T09:35:51.716Z,101571.53
2022-08-03T09:39:02.035Z,101582.72
2022-08-03T09:42:08.852Z,101566.94
2022-08-03T09:45:25.966Z,101583.03
2022-08-03T09:48:29.038Z,101575.50
2022-08-03T09:52:17.980Z,101574.03
2022-08-03T09:54:52.453Z,101572.25
2022-08-03T09:58:05.120Z,101566.72
2022-08-03T10:01:06.655Z,101582.66
2022-08-03T10:04:13.392Z,101568.53
2022-08-03T10:07:14.826Z,101564.28
2022-08-03T10:10:30.575Z,101567.84
2022-08-03T10:13:33.892Z,101564.72
2022-08-03T10:16:37.827Z,101561.28
2022-08-03T10:19:39.882Z,101562.44
2022-08-03T10:22:42.020Z,101563.28
2022-08-03T10:25:46.433Z,101565.59
2022-08-03T10:28:52.957Z,101563.84
2022-08-03T10:31:58.646Z,101568.28
2022-08-03T10:35:13.009Z,101563.13
2022-08-03T10:38:29.027Z,101560.22
2022-08-03T10:41:39.632Z,101556.41
2022-08-03T10:44:42.225Z,101560.97
2022-08-03T10:47:44.289Z,101563.22
2022-08-03T10:50:48.401Z,101556.97
2022-08-03T10:53:55.247Z,101559.38
2022-08-03T10:56:57.191Z,101558.97
2022-08-03T11:00:00.526Z,101544.56
2022-08-03T11:03:07.415Z,101542.72
2022-08-03T11:06:17.394Z,101548.38
2022-08-03T11:09:19.142Z,101536.91
2022-08-03T11:12:30.803Z,101542.44
2022-08-03T11:15:34.750Z,101538.88
2022-08-03T11:18:36.304Z,101539.38
2022-08-03T11:21:49.784Z,101541.22
2022-08-03T11:24:57.717Z,101545.88
2022-08-03T11:28:26.100Z,101547.31
2022-08-03T11:35:17.744Z,101546.22
2022-08-03T11:38:19.200Z,101542.00
2022-08-03T11:41:33.797Z,101535.19
2022-08-03T11:44:47.530Z,101543.13
2022-08-03T11:47:53.725Z,101540.38
2022-08-03T11:50:55.181Z,101539.72
2022-08-03T11:54:02.898Z,101536.03
2022-08-03T11:57:04.391Z,101535.25
2022-08-03T12:00:32.080Z,101532.00
2022-08-03T12:03:34.826Z,101537.38
2022-08-03T12:06:36.349Z,101536.31
2022-08-03T12:09:37.847Z,101539.78
2022-08-03T12:12:45.897Z,101532.94
2022-08-03T12:16:06.786Z,101526.94
2022-08-03T12:19:08.256Z,101533.13
2022-08-03T12:22:09.801Z,101528.34
2022-08-03T12:25:25.814Z,101535.56
2022-08-03T12:28:49.910Z,101518.38
2022-08-03T12:31:51.594Z,101533.97
2022-08-03T12:34:53.255Z,101528.34
2022-08-03T12:37:54.842Z,101529.06
2022-08-03T12:41:07.848Z,101523.78
2022-08-03T12:44:10.130Z,101522.34
2022-08-03T12:47:12.336Z,101542.13
2022-08-03T12:50:24.646Z,101526.00
2022-08-03T12:53:29.423Z,101521.91
2022-08-03T12:56:31.036Z,101524.84
2022-08-03T12:59:40.674Z,101528.03
2022-08-03T13:02:46.462Z,101529.97
2022-08-03T13:05:48.067Z,101523.56
2022-08-03T13:08:50.399Z,101522.97
2022-08-03T13:12:06.124Z,101518.63
2022-08-03T13:15:09.876Z,101528.22
2022-08-03T13:18:11.477Z,101523.97
2022-08-03T13:21:14.810Z,101523.06
2022-08-03T13:24:16.344Z,101524.66
2022-08-03T13:27:59.436Z,101516.69
2022-08-03T13:30:40.625Z,101505.88
2022-08-03T13:33:42.113Z,101511.13
2022-08-03T13:37:07.887Z,101516.09
2022-08-03T13:40:06.896Z,101511.13
2022-08-03T13:43:09.039Z,101499.06
2022-08-03T13:46:10.537Z,101504.59
2022-08-03T13:49:11.979Z,101503.81
2022-08-03T13:52:13.427Z,101511.22
2022-08-03T13:55:14.904Z,101510.44
2022-08-03T13:58:16.650Z,101519.78
2022-08-03T14:01:34.299Z,101503.91
2022-08-03T14:04:40.445Z,101500.25
2022-08-03T14:07:42.029Z,101505.94
2022-08-03T14:10:44.990Z,101502.22
2022-08-03T14:13:46.470Z,101505.84
2022-08-03T14:16:47.893Z,101501.63
2022-08-03T14:19:53.036Z,101498.16
2022-08-03T14:22:58.007Z,101498.16
2022-08-03T14:26:00.030Z,101500.28
2022-08-03T14:29:01.460Z,101489.97
2022-08-03T14:32:11.399Z,101484.69
2022-08-03T14:35:14.351Z,101485.19
2022-08-03T14:38:16.258Z,101487.06
2022-08-03T14:41:20.035Z,101489.47
2022-08-03T14:44:24.031Z,101479.59
2022-08-03T14:47:25.554Z,101478.13
2022-08-03T14:50:38.827Z,101468.16
2022-08-03T14:53:42.398Z,101475.16
2022-08-03T14:56:43.845Z,101475.16
2022-08-03T14:59:55.888Z,101479.66
2022-08-03T15:03:02.205Z,101472.22
2022-08-03T15:06:03.777Z,101475.41
2022-08-03T15:12:26.704Z,101468.72
2022-08-03T15:15:28.189Z,101465.81
2022-08-03T15:18:29.606Z,101466.91
2022-08-03T15:21:46.699Z,101461.78
2022-08-03T15:24:49.883Z,101465.50
2022-08-03T15:28:04.112Z,101457.19
2022-08-03T15:31:06.334Z,101455.09
2022-08-03T15:34:08.017Z,101455.44
2022-08-03T15:37:15.176Z,101464.59
2022-08-03T15:40:18.242Z,101450.50
2022-08-03T15:43:21.011Z,101453.53
2022-08-03T15:46:30.130Z,101451.66
2022-08-03T15:49:31.824Z,101447.81
2022-08-03T15:52:35.808Z,101448.34
2022-08-03T15:55:37.259Z,101440.78
2022-08-03T15:59:09.576Z,101440.53
2022-08-03T16:02:00.905Z,101434.84
2022-08-03T16:05:02.556Z,101436.16
2022-08-03T16:08:05.640Z,101432.91
2022-08-03T16:11:10.265Z,101432.72
2022-08-03T16:14:30.759Z,101432.75
2022-08-03T16:17:33.186Z,101426.16
2022-08-03T16:20:35.375Z,101424.63
2022-08-03T16:23:37.020Z,101425.50
2022-08-03T16:26:39.441Z,101419.28
2022-08-03T16:29:41.063Z,101422.09
2022-08-03T16:32:44.058Z,101425.84
2022-08-03T16:35:46.075Z,101423.91
2022-08-03T16:38:47.538Z,101417.44
2022-08-03T16:41:54.525Z,101418.22
2022-08-03T16:45:05.190Z,101427.84
2022-08-03T16:48:07.293Z,101420.63
2022-08-03T16:51:08.765Z,101421.88
2022-08-03T16:54:12.465Z,101415.19
2022-08-03T16:57:15.576Z,101418.59
2022-08-03T17:00:32.848Z,101416.50
2022-08-03T17:03:57.029Z,101415.31
2022-08-03T17:07:00.164Z,101412.00
2022-08-03T17:10:01.807Z,101410.53
2022-08-03T17:13:03.257Z,101412.75
2022-08-03T17:16:08.816Z,101415.94
2022-08-03T17:19:12.167Z,101414.63
2022-08-03T17:22:19.036Z,101415.47
2022-08-03T17:25:39.942Z,101418.56
2022-08-03T17:28:56.472Z,101415.97
2022-08-03T17:32:00.711Z,101414.50
2022-08-03T17:35:03.492Z,101412.34
2022-08-03T17:38:11.877Z,101409.47
2022-08-03T17:41:15.865Z,101409.66
2022-08-03T17:44:28.897Z,101412.69
2022-08-03T17:47:41.476Z,101412.44
2022-08-03T17:50:51.498Z,101418.16
2022-08-03T17:54:18.591Z,101418.88
2022-08-03T17:58:02.050Z,101421.56
2022-08-03T18:01:03.364Z,101421.00
2022-08-03T18:04:11.167Z,101427.50
2022-08-03T18:07:16.050Z,101422.88
2022-08-03T18:10:25.341Z,101422.84
2022-08-03T18:13:30.340Z,101419.97
2022-08-03T18:16:37.787Z,101421.63
2022-08-03T18:20:00.991Z,101424.00
2022-08-03T18:23:04.970Z,101424.91
2022-08-03T18:26:12.225Z,101415.34
2022-08-03T18:29:14.568Z,101422.94
2022-08-03T18:32:17.971Z,101418.81
2022-08-03T18:35:19.617Z,101427.59
2022-08-03T18:38:29.027Z,101421.19
2022-08-03T18:41:34.993Z,101421.44
2022-08-03T18:44:53.953Z,101434.00
2022-08-03T18:48:08.534Z,101424.91
2022-08-03T18:51:28.841Z,101425.16
2022-08-03T18:55:02.652Z,101427.13
2022-08-03T18:58:17.921Z,101418.06
2022-08-03T19:01:59.804Z,101423.66
2022-08-03T19:05:07.209Z,101423.03
2022-08-03T19:08:47.878Z,101429.53
2022-08-03T19:12:14.388Z,101434.66
2022-08-03T19:15:15.622Z,101435.22
2022-08-03T19:18:17.992Z,101431.88
2022-08-03T19:21:22.508Z,101424.69
2022-08-03T19:24:26.211Z,101427.53
2022-08-03T19:27:29.563Z,101438.41
2022-08-03T19:30:34.347Z,101440.16
2022-08-03T19:33:55.966Z,101433.72
2022-08-03T19:36:57.963Z,101433.38
2022-08-03T19:40:00.155Z,101435.19
2022-08-03T19:43:16.809Z,101442.41
2022-08-03T19:46:20.242Z,101434.25
2022-08-03T19:50:05.251Z,101431.00
2022-08-03T19:52:49.775Z,101437.47
2022-08-03T19:55:56.634Z,101428.53
2022-08-03T19:58:58.825Z,101424.56
2022-08-03T20:02:00.490Z,101432.81
2022-08-03T20:05:01.980Z,101428.59
2022-08-03T20:08:06.085Z,101425.16
2022-08-03T20:11:09.340Z,101430.75
2022-08-03T20:14:11.502Z,101428.59
2022-08-03T20:17:15.509Z,101423.84
2022-08-03T20:20:29.763Z,101419.31
2022-08-03T20:23:37.679Z,101415.34
2022-08-03T20:26:40.598Z,101416.38
2022-08-03T20:30:06.784Z,101407.44
2022-08-03T20:33:19.100Z,101410.53
2022-08-03T20:36:20.886Z,101407.59
2022-08-03T20:39:22.887Z,101414.03
2022-08-03T20:42:24.449Z,101415.50
2022-08-03T20:46:00.431Z,101412.28
2022-08-03T20:48:48.534Z,101411.41
2022-08-03T20:51:53.092Z,101411.31
2022-08-03T20:54:55.541Z,101407.06
2022-08-03T20:57:59.185Z,101404.88
2022-08-03T21:01:02.275Z,101411.41
2022-08-03T21:04:07.059Z,101400.97
2022-08-03T21:07:22.854Z,101396.00
2022-08-03T21:10:29.599Z,101398.13
2022-08-03T21:14:01.300Z,101395.09
2022-08-03T21:17:14.093Z,101394.50
2022-08-03T21:20:22.601Z,101392.78
2022-08-03T21:23:39.886Z,101385.50
2022-08-03T21:26:47.996Z,101386.06
2022-08-03T21:29:53.266Z,101378.41
2022-08-03T21:32:57.224Z,101377.16
2022-08-03T21:35:58.900Z,101373.94
2022-08-03T21:39:05.227Z,101368.94
2022-08-03T21:42:08.416Z,101374.31
2022-08-03T21:45:16.898Z,101363.97
2022-08-03T21:48:19.221Z,101369.66
2022-08-03T21:51:25.879Z,101368.88
2022-08-03T21:54:34.431Z,101371.94
2022-08-03T21:57:38.459Z,101373.91
2022-08-03T22:00:43.155Z,101372.28
2022-08-03T22:03:53.937Z,101371.72
2022-08-03T22:06:55.749Z,101368.25
2022-08-03T22:09:58.742Z,101364.25
2022-08-03T22:13:00.215Z,101363.66
2022-08-03T22:16:01.922Z,101359.06
2022-08-03T22:19:03.511Z,101360.41
2022-08-03T22:22:06.685Z,101359.72
2022-08-03T22:25:12.644Z,101359.25
2022-08-03T22:28:14.712Z,101360.97
2022-08-03T22:31:57.156Z,101356.00
2022-08-03T22:34:39.448Z,101356.38
2022-08-03T22:37:45.309Z,101349.38
2022-08-03T22:40:49.012Z,101352.34
2022-08-03T22:43:50.844Z,101353.78
2022-08-03T22:46:52.361Z,101352.44
2022-08-03T22:50:32.378Z,101353.44
2022-08-03T22:53:18.766Z,101358.81
2022-08-03T22:56:20.440Z,101351.56
2022-08-03T22:59:41.042Z,101356.91
2022-08-03T23:02:46.782Z,101357.78
2022-08-03T23:06:00.517Z,101355.19
2022-08-03T23:09:08.213Z,101353.28
2022-08-03T23:12:13.995Z,101358.53
2022-08-03T23:15:17.031Z,101353.44
2022-08-03T23:18:21.093Z,101358.25
2022-08-03T23:21:51.256Z,101358.13
2022-08-03T23:24:44.594Z,101362.72
2022-08-03T23:28:05.450Z,101360.94
2022-08-03T23:31:08.173Z,101353.84
2022-08-03T23:34:16.403Z,101359.88
2022-08-03T23:37:19.309Z,101359.75
2022-08-03T23:40:23.712Z,101357.28
2022-08-03T23:43:51.339Z,101354.69
2022-08-03T23:46:49.087Z,101351.94
2022-08-03T23:49:50.741Z,101352.28
2022-08-03T23:53:07.855Z,101355.06
2022-08-03T23:56:37.067Z,101350.56
